Time;durP1;ratioP1;P1;durP2;ratioP2;P2;SDS_P1;SDS_P2;PMS_P1;PMS_P2;Temp;Humidity;BMP_temperature;BMP_pressure;BME280_temperature;BME280_humidity;BME280_pressure;Samples;Min_cycle;Max_cycle;Signal;HPM_P1;HPM_P2
2022/01/10 07:09:27;;;;;;;29.85;14.02;;;;;;;;;;5165018;23;20075;-60
2022/01/10 07:11:53;;;;;;;42.13;20.95;;;;;;;;;;4916897;29;20083;-59
2022/01/10 07:14:19;;;;;;;32.60;15.35;;;;;;;;;;4916909;29;20071;-59
2022/01/10 07:16:48;;;;;;;31.08;14.40;;;;;;;;;;4917048;29;20036;-59
2022/01/10 07:19:18;;;;;;;34.22;15.85;;;;;;;;;;4916880;29;20084;-59
2022/01/10 07:21:45;;;;;;;39.50;18.00;;;;;;;;;;4916817;29;20051;-60
2022/01/10 07:24:11;;;;;;;40.15;19.23;;;;;;;;;;4916369;29;20088;-61
2022/01/10 07:26:37;;;;;;;38.42;18.10;;;;;;;;;;4921303;29;20068;-60
2022/01/10 07:29:04;;;;;;;39.90;18.10;;;;;;;;;;4935455;29;20020;-62
2022/01/10 07:31:30;;;;;;;42.50;19.52;;;;;;;;;;4935904;29;20548;-61
2022/01/10 07:33:57;;;;;;;51.28;21.77;;;;;;;;;;4935254;29;20047;-61
2022/01/10 07:36:23;;;;;;;42.83;19.90;;;;;;;;;;4935479;29;20047;-60
2022/01/10 07:38:49;;;;;;;36.35;17.60;;;;;;;;;;4935625;29;20111;-61
2022/01/10 07:41:15;;;;;;;34.47;15.90;;;;;;;;;;4935636;29;20039;-62
2022/01/10 07:43:41;;;;;;;37.72;19.15;;;;;;;;;;4935458;29;20039;-61
2022/01/10 07:46:08;;;;;;;35.67;15.65;;;;;;;;;;4934817;29;20039;-59
2022/01/10 07:48:36;;;;;;;42.78;20.48;;;;;;;;;;4935155;29;20023;-61
2022/01/10 07:51:03;;;;;;;44.83;21.52;;;;;;;;;;4934835;29;20524;-60
2022/01/10 07:53:29;;;;;;;48.53;22.42;;;;;;;;;;4934093;29;20115;-60
2022/01/10 07:55:55;;;;;;;69.20;31.67;;;;;;;;;;4934946;29;20040;-62
2022/01/10 07:58:21;;;;;;;79.53;35.15;;;;;;;;;;4935304;29;20108;-61
2022/01/10 08:00:47;;;;;;;62.10;27.42;;;;;;;;;;4934838;29;20054;-60
2022/01/10 08:03:13;;;;;;;52.95;27.73;;;;;;;;;;4934774;29;20476;-61
2022/01/10 08:05:39;;;;;;;38.80;18.23;;;;;;;;;;4934657;29;20036;-61
2022/01/10 08:08:05;;;;;;;46.83;22.80;;;;;;;;;;4933450;29;20028;-60
2022/01/10 08:10:31;;;;;;;49.40;22.88;;;;;;;;;;4916775;29;20400;-58
2022/01/10 08:12:58;;;;;;;61.92;27.77;;;;;;;;;;4909112;29;20480;-60
2022/01/10 08:15:24;;;;;;;33.65;15.88;;;;;;;;;;4896624;29;20393;-60
2022/01/10 08:17:50;;;;;;;35.00;15.30;;;;;;;;;;4896402;29;20023;-59
2022/01/10 08:20:16;;;;;;;20.45;10.15;;;;;;;;;;4899088;29;20131;-60
2022/01/10 08:22:42;;;;;;;106.63;48.22;;;;;;;;;;4903971;29;20024;-58
2022/01/10 08:25:08;;;;;;;99.80;46.10;;;;;;;;;;4896521;29;20362;-58
2022/01/10 08:27:35;;;;;;;33.58;16.60;;;;;;;;;;4896761;29;20033;-60
2022/01/10 08:30:02;;;;;;;32.83;14.45;;;;;;;;;;4896342;29;20032;-60
2022/01/10 08:32:28;;;;;;;54.53;24.52;;;;;;;;;;4896485;29;20417;-60
2022/01/10 08:34:55;;;;;;;43.17;20.38;;;;;;;;;;4896261;29;20045;-61
2022/01/10 08:37:22;;;;;;;30.50;15.85;;;;;;;;;;4896269;29;20108;-60
2022/01/10 08:39:49;;;;;;;32.33;16.00;;;;;;;;;;4896546;29;20031;-60
2022/01/10 08:42:19;;;;;;;30.38;13.45;;;;;;;;;;4895929;29;20036;-60
2022/01/10 08:44:46;;;;;;;53.85;22.50;;;;;;;;;;4896256;29;20032;-60
2022/01/10 08:47:12;;;;;;;54.67;26.98;;;;;;;;;;4896091;29;20029;-60
2022/01/10 08:49:38;;;;;;;39.20;19.90;;;;;;;;;;4896226;29;20021;-60
2022/01/10 08:52:04;;;;;;;33.17;14.85;;;;;;;;;;4896119;29;20025;-61
2022/01/10 08:54:31;;;;;;;25.27;11.50;;;;;;;;;;4896100;29;20041;-60
2022/01/10 08:56:57;;;;;;;32.85;17.02;;;;;;;;;;4895995;29;20080;-60
2022/01/10 08:59:23;;;;;;;32.47;15.20;;;;;;;;;;4895999;29;20040;-60
2022/01/10 09:01:49;;;;;;;37.22;18.10;;;;;;;;;;4895976;29;20028;-60
2022/01/10 09:04:16;;;;;;;37.30;18.63;;;;;;;;;;4895168;29;20052;-60
2022/01/10 09:06:46;;;;;;;59.17;30.98;;;;;;;;;;4895755;29;20020;-60
2022/01/10 09:09:12;;;;;;;17.20;7.82;;;;;;;;;;4916694;29;20051;-60
2022/01/10 09:11:38;;;;;;;37.45;20.42;;;;;;;;;;4918892;29;20083;-60
2022/01/10 09:14:05;;;;;;;41.28;20.05;;;;;;;;;;4923842;29;20091;-61
2022/01/10 09:16:32;;;;;;;36.25;18.88;;;;;;;;;;4913636;29;20054;-61
2022/01/10 09:18:59;;;;;;;31.77;16.13;;;;;;;;;;4922526;29;20076;-61
2022/01/10 09:21:25;;;;;;;40.08;21.20;;;;;;;;;;4919858;29;20055;-60
2022/01/10 09:23:51;;;;;;;32.17;16.13;;;;;;;;;;4922013;29;20082;-60
2022/01/10 09:26:17;;;;;;;27.55;12.98;;;;;;;;;;4923230;29;20112;-60
2022/01/10 09:28:43;;;;;;;36.30;17.85;;;;;;;;;;4922005;29;20036;-60
2022/01/10 09:31:10;;;;;;;34.85;19.10;;;;;;;;;;4923121;29;20441;-59
2022/01/10 09:33:36;;;;;;;34.03;16.85;;;;;;;;;;4923313;29;20036;-60
2022/01/10 09:36:03;;;;;;;29.00;14.27;;;;;;;;;;4921938;29;20031;-60
2022/01/10 09:38:29;;;;;;;37.47;18.38;;;;;;;;;;4922381;29;20024;-60
2022/01/10 09:40:55;;;;;;;42.55;21.25;;;;;;;;;;4923496;29;20425;-61
2022/01/10 09:43:22;;;;;;;53.67;25.40;;;;;;;;;;4921957;29;20096;-60
2022/01/10 09:45:48;;;;;;;59.72;30.75;;;;;;;;;;4921691;29;20548;-61
2022/01/10 09:48:15;;;;;;;42.15;21.45;;;;;;;;;;4921982;29;20024;-60
2022/01/10 09:50:41;;;;;;;34.47;17.75;;;;;;;;;;4923205;29;20600;-60
2022/01/10 09:53:08;;;;;;;36.25;20.58;;;;;;;;;;4922886;29;20028;-60
2022/01/10 09:55:35;;;;;;;33.92;18.15;;;;;;;;;;4923287;29;20103;-59
2022/01/10 09:58:03;;;;;;;29.80;17.35;;;;;;;;;;4918567;29;20040;-59
2022/01/10 10:00:29;;;;;;;37.33;19.70;;;;;;;;;;4926436;29;20055;-60
2022/01/10 10:02:56;;;;;;;35.13;18.50;;;;;;;;;;4933351;29;20519;-61
2022/01/10 10:05:22;;;;;;;38.38;20.52;;;;;;;;;;4932950;29;20451;-60
2022/01/10 10:07:48;;;;;;;59.28;34.13;;;;;;;;;;4932934;29;20373;-59
2022/01/10 10:10:15;;;;;;;40.13;21.35;;;;;;;;;;4933117;29;20123;-59
2022/01/10 10:12:46;;;;;;;41.47;21.30;;;;;;;;;;4933192;29;20027;-59
2022/01/10 10:15:15;;;;;;;43.50;22.17;;;;;;;;;;4933195;29;20491;-59
2022/01/10 10:17:42;;;;;;;38.65;20.40;;;;;;;;;;4935119;29;20238;-61
2022/01/10 10:20:12;;;;;;;43.83;23.27;;;;;;;;;;4918981;29;20183;-61
2022/01/10 10:22:41;;;;;;;44.58;23.02;;;;;;;;;;4936784;29;20027;-60
2022/01/10 10:25:09;;;;;;;45.58;23.33;;;;;;;;;;4936233;29;20564;-61
2022/01/10 10:27:35;;;;;;;37.83;17.08;;;;;;;;;;4936142;29;20399;-60
2022/01/10 10:30:03;;;;;;;46.75;24.17;;;;;;;;;;4936357;29;20087;-59
2022/01/10 10:32:30;;;;;;;38.13;19.50;;;;;;;;;;4936593;29;20028;-60
2022/01/10 10:34:57;;;;;;;42.63;22.23;;;;;;;;;;4936273;29;20066;-59
2022/01/10 10:37:25;;;;;;;40.58;21.23;;;;;;;;;;4936282;29;20034;-58
2022/01/10 10:39:52;;;;;;;43.10;23.20;;;;;;;;;;4936245;29;20024;-59
2022/01/10 10:42:18;;;;;;;44.85;22.48;;;;;;;;;;4917181;29;20020;-57
2022/01/10 10:44:44;;;;;;;60.40;30.63;;;;;;;;;;4909479;29;20031;-59
2022/01/10 10:47:17;;;;;;;90.53;39.90;;;;;;;;;;4898481;29;20088;-59
2022/01/10 10:49:46;;;;;;;86.75;39.15;;;;;;;;;;4898364;29;20029;-59
2022/01/10 10:52:13;;;;;;;48.40;23.80;;;;;;;;;;4898250;29;20024;-60
2022/01/10 10:54:40;;;;;;;46.80;25.15;;;;;;;;;;4898134;29;20080;-60
2022/01/10 10:57:08;;;;;;;36.15;19.08;;;;;;;;;;4898674;29;20037;-60
2022/01/10 10:59:37;;;;;;;38.33;20.30;;;;;;;;;;4898257;29;20033;-59
2022/01/10 11:02:04;;;;;;;44.95;22.17;;;;;;;;;;4915466;29;20107;-59
2022/01/10 11:04:31;;;;;;;44.10;22.00;;;;;;;;;;4926109;29;20043;-59
2022/01/10 11:06:58;;;;;;;165.90;66.85;;;;;;;;;;4925002;29;20020;-59
2022/01/10 11:09:24;;;;;;;131.60;60.50;;;;;;;;;;4924452;29;20075;-58
2022/01/10 11:11:50;;;;;;;48.70;24.63;;;;;;;;;;4926234;29;20023;-60
2022/01/10 11:14:17;;;;;;;49.35;23.67;;;;;;;;;;4925008;29;20092;-58
2022/01/10 11:16:45;;;;;;;53.30;25.33;;;;;;;;;;4907808;29;20030;-58
2022/01/10 11:19:18;;;;;;;52.85;26.02;;;;;;;;;;4926365;29;20024;-59
2022/01/10 11:21:52;;;;;;;47.50;24.10;;;;;;;;;;4925623;29;20103;-59
2022/01/10 11:24:36;;;;;;;51.10;24.95;;;;;;;;;;4927912;29;20027;-60
2022/01/10 11:27:04;;;;;;;48.30;23.30;;;;;;;;;;4916743;29;20080;-61
2022/01/10 11:29:30;;;;;;;52.55;26.50;;;;;;;;;;4920122;29;20484;-59
2022/01/10 11:31:56;;;;;;;49.22;24.25;;;;;;;;;;4924533;29;20055;-58
2022/01/10 11:34:22;;;;;;;52.88;24.95;;;;;;;;;;4925507;29;20035;-59
2022/01/10 11:36:49;;;;;;;51.47;25.60;;;;;;;;;;4924706;29;20384;-62
2022/01/10 11:39:15;;;;;;;59.90;28.20;;;;;;;;;;4925415;29;20078;-60
2022/01/10 11:41:41;;;;;;;55.45;29.63;;;;;;;;;;4924116;29;20064;-59
2022/01/10 11:44:10;;;;;;;62.42;31.13;;;;;;;;;;4925740;29;20032;-61
2022/01/10 11:46:48;;;;;;;58.65;30.02;;;;;;;;;;4924581;29;20032;-63
2022/01/10 11:49:21;;;;;;;51.00;24.38;;;;;;;;;;4922626;29;20024;-63
2022/01/10 11:51:50;;;;;;;45.85;24.77;;;;;;;;;;4931899;29;20455;-64
2022/01/10 11:54:18;;;;;;;49.40;25.20;;;;;;;;;;4922757;29;20037;-63
2022/01/10 11:56:51;;;;;;;51.92;25.17;;;;;;;;;;4919878;29;20032;-60
2022/01/10 11:59:17;;;;;;;49.65;25.90;;;;;;;;;;4925163;29;20091;-60
2022/01/10 12:01:45;;;;;;;52.08;26.70;;;;;;;;;;4923431;29;20021;-60
2022/01/10 12:04:11;;;;;;;55.95;26.83;;;;;;;;;;4925705;29;20023;-60
2022/01/10 12:06:37;;;;;;;52.42;25.55;;;;;;;;;;4934562;29;20365;-61
2022/01/10 12:09:04;;;;;;;46.92;23.92;;;;;;;;;;4934233;29;20058;-59
2022/01/10 12:11:30;;;;;;;59.88;27.85;;;;;;;;;;4934876;29;20031;-60
2022/01/10 12:13:59;;;;;;;51.60;25.48;;;;;;;;;;4934658;29;20031;-59
2022/01/10 12:16:26;;;;;;;54.33;27.58;;;;;;;;;;4934715;29;20213;-59
2022/01/10 12:18:53;;;;;;;57.10;27.40;;;;;;;;;;4920362;29;20057;-59
2022/01/10 12:21:19;;;;;;;55.00;26.15;;;;;;;;;;4923583;29;20028;-59
2022/01/10 12:23:45;;;;;;;44.65;21.65;;;;;;;;;;4924640;29;20099;-59
2022/01/10 12:26:13;;;;;;;58.75;27.63;;;;;;;;;;4923278;29;20119;-58
2022/01/10 12:28:39;;;;;;;61.15;30.15;;;;;;;;;;4923475;29;20055;-58
2022/01/10 12:31:07;;;;;;;89.97;41.33;;;;;;;;;;4924551;29;20031;-61
2022/01/10 12:33:34;;;;;;;63.45;30.58;;;;;;;;;;4923454;29;20048;-61
2022/01/10 12:36:02;;;;;;;62.70;30.60;;;;;;;;;;4923293;29;20028;-59
2022/01/10 12:38:28;;;;;;;58.72;30.17;;;;;;;;;;4924461;29;20027;-58
2022/01/10 12:40:55;;;;;;;38.97;13.88;;;;;;;;;;4928710;29;20051;-59
2022/01/10 12:43:21;;;;;;;65.00;30.80;;;;;;;;;;4934435;29;20027;-59
2022/01/10 12:45:47;;;;;;;77.78;35.55;;;;;;;;;;4934533;29;20066;-60
2022/01/10 12:48:14;;;;;;;58.88;28.10;;;;;;;;;;4934461;29;20024;-57
2022/01/10 12:50:41;;;;;;;58.65;23.80;;;;;;;;;;4933670;29;20027;-58
2022/01/10 12:53:07;;;;;;;57.53;26.63;;;;;;;;;;4934016;29;20042;-58
2022/01/10 12:55:33;;;;;;;65.65;29.65;;;;;;;;;;4934047;29;20047;-59
2022/01/10 12:58:00;;;;;;;57.05;25.65;;;;;;;;;;4933287;29;20523;-57
2022/01/10 13:00:26;;;;;;;35.17;14.70;;;;;;;;;;4934299;29;20046;-59
2022/01/10 13:02:52;;;;;;;55.67;25.75;;;;;;;;;;4934133;29;20159;-58
2022/01/10 13:05:20;;;;;;;57.05;25.27;;;;;;;;;;4933555;29;20023;-57
2022/01/10 13:07:47;;;;;;;68.85;30.77;;;;;;;;;;4932003;29;20126;-59
2022/01/10 13:10:29;;;;;;;81.55;34.13;;;;;;;;;;4924840;29;20032;-58
2022/01/10 13:12:55;;;;;;;54.22;24.48;;;;;;;;;;4932209;29;20035;-57
2022/01/10 13:15:21;;;;;;;64.95;28.48;;;;;;;;;;4933939;29;20066;-57
2022/01/10 13:17:58;;;;;;;60.90;27.45;;;;;;;;;;4924135;29;20080;-61
2022/01/10 13:20:25;;;;;;;69.47;32.60;;;;;;;;;;4925753;29;20027;-59
2022/01/10 13:23:08;;;;;;;59.38;28.35;;;;;;;;;;4933061;29;20568;-57
2022/01/10 13:25:37;;;;;;;66.35;30.27;;;;;;;;;;4921495;29;20103;-61
2022/01/10 13:28:07;;;;;;;73.57;28.73;;;;;;;;;;4920738;29;20679;-58
2022/01/10 13:30:34;;;;;;;60.70;28.30;;;;;;;;;;4914652;29;20027;-58
2022/01/10 13:33:01;;;;;;;27.85;12.40;;;;;;;;;;4921270;29;20032;-64
2022/01/10 13:35:29;;;;;;;58.30;25.33;;;;;;;;;;4916455;29;20048;-61
2022/01/10 13:37:58;;;;;;;51.47;23.83;;;;;;;;;;4914620;29;20037;-60
2022/01/10 13:40:26;;;;;;;46.17;19.38;;;;;;;;;;4914590;29;20399;-59
2022/01/10 13:43:04;;;;;;;62.83;27.27;;;;;;;;;;4914463;29;20032;-57
2022/01/10 13:45:40;;;;;;;62.67;29.48;;;;;;;;;;4914280;29;20383;-60
2022/01/10 13:48:07;;;;;;;61.85;28.55;;;;;;;;;;4914086;29;20459;-57
2022/01/10 13:50:34;;;;;;;47.92;21.67;;;;;;;;;;4914939;29;20036;-58
2022/01/10 13:53:01;;;;;;;60.75;27.00;;;;;;;;;;4917792;29;20147;-61
2022/01/10 13:55:27;;;;;;;61.40;28.42;;;;;;;;;;4917714;29;20065;-57
2022/01/10 13:57:53;;;;;;;56.75;27.63;;;;;;;;;;4918013;29;20043;-59
2022/01/10 14:00:21;;;;;;;56.10;24.50;;;;;;;;;;4918454;29;20115;-59
2022/01/10 14:02:47;;;;;;;58.85;24.35;;;;;;;;;;4917527;29;20024;-58
2022/01/10 14:05:24;;;;;;;65.57;29.65;;;;;;;;;;4918040;29;20072;-62
2022/01/10 14:07:51;;;;;;;61.33;28.90;;;;;;;;;;4917445;29;20096;-59
2022/01/10 14:10:17;;;;;;;55.95;25.75;;;;;;;;;;4917005;29;20173;-63
2022/01/10 14:12:44;;;;;;;72.65;31.38;;;;;;;;;;4917428;29;20096;-61
2022/01/10 14:15:10;;;;;;;63.70;29.58;;;;;;;;;;4917851;29;20151;-63
2022/01/10 14:17:36;;;;;;;72.93;33.95;;;;;;;;;;4917401;29;20024;-63
2022/01/10 14:20:04;;;;;;;74.10;32.13;;;;;;;;;;4917645;29;20036;-64
2022/01/10 14:22:30;;;;;;;72.60;32.80;;;;;;;;;;4916713;29;20933;-63
2022/01/10 14:24:56;;;;;;;70.82;30.52;;;;;;;;;;4917548;29;20118;-64
2022/01/10 14:27:22;;;;;;;72.78;34.28;;;;;;;;;;4917707;29;20586;-64
2022/01/10 14:29:49;;;;;;;74.55;34.60;;;;;;;;;;4917691;29;20499;-62
2022/01/10 14:32:15;;;;;;;70.70;32.47;;;;;;;;;;4917299;29;20028;-63
2022/01/10 14:34:41;;;;;;;80.30;35.45;;;;;;;;;;4917355;29;20068;-59
2022/01/10 14:37:07;;;;;;;84.78;37.15;;;;;;;;;;4916614;29;20124;-62
2022/01/10 14:39:33;;;;;;;79.47;36.30;;;;;;;;;;4917104;29;20100;-64
2022/01/10 14:41:59;;;;;;;76.10;35.45;;;;;;;;;;4917400;29;20368;-59
2022/01/10 14:44:25;;;;;;;75.28;33.72;;;;;;;;;;4917055;29;20568;-57
2022/01/10 14:46:51;;;;;;;72.32;33.22;;;;;;;;;;4916686;29;20032;-58
2022/01/10 14:49:17;;;;;;;82.32;34.40;;;;;;;;;;4916986;29;20024;-60
2022/01/10 14:51:43;;;;;;;82.28;35.63;;;;;;;;;;4916958;29;20043;-62
2022/01/10 14:54:09;;;;;;;85.88;39.35;;;;;;;;;;4916997;29;20056;-59
2022/01/10 14:56:35;;;;;;;77.72;34.30;;;;;;;;;;4916498;29;20065;-59
2022/01/10 14:59:03;;;;;;;79.55;35.53;;;;;;;;;;4917115;29;20369;-57
2022/01/10 15:01:30;;;;;;;69.50;30.48;;;;;;;;;;4917190;29;20028;-57
2022/01/10 15:03:57;;;;;;;59.60;25.52;;;;;;;;;;4916183;29;20032;-57
2022/01/10 15:06:23;;;;;;;71.88;33.72;;;;;;;;;;4916667;29;20091;-58
2022/01/10 15:08:49;;;;;;;96.35;39.70;;;;;;;;;;4916259;29;20055;-56
2022/01/10 15:11:17;;;;;;;79.20;36.78;;;;;;;;;;4915947;29;20169;-59
2022/01/10 15:13:44;;;;;;;70.28;32.90;;;;;;;;;;4916281;29;20575;-57
2022/01/10 15:16:14;;;;;;;44.55;17.30;;;;;;;;;;4916304;29;20032;-58
2022/01/10 15:18:41;;;;;;;69.57;34.60;;;;;;;;;;4916378;29;20031;-58
2022/01/10 15:21:07;;;;;;;56.65;25.50;;;;;;;;;;4915861;29;20176;-57
2022/01/10 15:23:35;;;;;;;66.80;31.65;;;;;;;;;;4916611;29;20507;-58
2022/01/10 15:26:02;;;;;;;67.68;29.95;;;;;;;;;;4916818;29;20028;-57
2022/01/10 15:28:28;;;;;;;59.92;27.83;;;;;;;;;;4916422;29;20032;-57
2022/01/10 15:30:54;;;;;;;80.47;38.03;;;;;;;;;;4916371;29;20055;-57
2022/01/10 15:33:20;;;;;;;76.10;34.15;;;;;;;;;;4915719;29;20024;-57
2022/01/10 15:35:48;;;;;;;70.15;31.35;;;;;;;;;;4916391;29;20032;-57
2022/01/10 15:38:14;;;;;;;68.55;30.95;;;;;;;;;;4916671;29;20031;-58
2022/01/10 15:40:40;;;;;;;73.72;34.30;;;;;;;;;;4909398;29;20055;-61
2022/01/10 15:43:06;;;;;;;66.90;33.28;;;;;;;;;;4902266;29;20034;-58
2022/01/10 15:45:32;;;;;;;68.45;31.85;;;;;;;;;;4902876;29;20046;-57
2022/01/10 15:47:58;;;;;;;72.80;34.97;;;;;;;;;;4915896;29;20479;-60
2022/01/10 15:50:26;;;;;;;63.50;31.85;;;;;;;;;;4916107;29;20111;-62
2022/01/10 15:52:53;;;;;;;61.17;28.92;;;;;;;;;;4915019;29;20476;-62
2022/01/10 15:55:19;;;;;;;58.90;24.27;;;;;;;;;;4915302;29;20102;-63
2022/01/10 15:57:45;;;;;;;62.95;29.63;;;;;;;;;;4918318;29;20034;-61
2022/01/10 16:00:13;;;;;;;65.22;31.08;;;;;;;;;;4924554;29;20419;-59
2022/01/10 16:02:39;;;;;;;65.60;31.58;;;;;;;;;;4918096;29;20032;-60
2022/01/10 16:05:06;;;;;;;64.30;30.58;;;;;;;;;;4915701;29;20437;-62
2022/01/10 16:07:33;;;;;;;66.15;30.63;;;;;;;;;;4934303;29;20091;-62
2022/01/10 16:10:00;;;;;;;74.07;33.75;;;;;;;;;;4933903;29;20043;-61
2022/01/10 16:12:26;;;;;;;70.63;33.05;;;;;;;;;;4921435;29;20039;-61
2022/01/10 16:14:52;;;;;;;70.20;33.70;;;;;;;;;;4916778;29;20079;-62
2022/01/10 16:17:18;;;;;;;58.05;28.98;;;;;;;;;;4920224;29;20031;-63
2022/01/10 16:19:45;;;;;;;68.30;31.38;;;;;;;;;;4920346;29;20032;-60
2022/01/10 16:22:11;;;;;;;78.07;34.03;;;;;;;;;;4909351;29;20028;-61
2022/01/10 16:24:38;;;;;;;72.78;32.40;;;;;;;;;;4915217;29;20032;-61
2022/01/10 16:27:05;;;;;;;65.57;31.25;;;;;;;;;;4910932;29;20424;-61
2022/01/10 16:29:31;;;;;;;64.25;31.70;;;;;;;;;;4903946;29;20089;-60
2022/01/10 16:31:58;;;;;;;57.60;28.25;;;;;;;;;;4915180;29;20023;-60
2022/01/10 16:34:24;;;;;;;65.40;31.17;;;;;;;;;;4915160;29;20162;-59
2022/01/10 16:36:54;;;;;;;67.22;33.13;;;;;;;;;;4915300;29;20025;-61
2022/01/10 16:39:20;;;;;;;69.32;31.85;;;;;;;;;;4915456;29;20023;-59
2022/01/10 16:41:46;;;;;;;73.80;35.63;;;;;;;;;;4914900;29;20061;-62
2022/01/10 16:44:12;;;;;;;66.95;32.85;;;;;;;;;;4915224;29;20020;-60
2022/01/10 16:46:38;;;;;;;64.97;31.77;;;;;;;;;;4915206;29;20024;-61
2022/01/10 16:49:04;;;;;;;70.90;34.65;;;;;;;;;;4915133;29;20384;-60
2022/01/10 16:51:30;;;;;;;68.15;32.88;;;;;;;;;;4915196;29;20442;-61
2022/01/10 16:53:57;;;;;;;73.97;34.45;;;;;;;;;;4914792;29;20040;-61
2022/01/10 16:56:23;;;;;;;69.15;35.28;;;;;;;;;;4915052;29;20021;-61
2022/01/10 16:58:50;;;;;;;78.07;36.38;;;;;;;;;;4914964;29;20035;-61
2022/01/10 17:01:16;;;;;;;70.13;35.08;;;;;;;;;;4915209;29;20043;-61
2022/01/10 17:03:42;;;;;;;76.88;35.92;;;;;;;;;;4914431;29;20088;-62
2022/01/10 17:06:09;;;;;;;76.28;38.50;;;;;;;;;;4914737;29;20387;-59
2022/01/10 17:08:36;;;;;;;77.88;37.53;;;;;;;;;;4914781;29;20516;-61
2022/01/10 17:11:02;;;;;;;73.03;34.47;;;;;;;;;;4913922;29;20084;-61
2022/01/10 17:13:28;;;;;;;69.13;36.05;;;;;;;;;;4901191;29;20395;-60
2022/01/10 17:15:54;;;;;;;82.18;40.22;;;;;;;;;;4895671;29;20120;-59
2022/01/10 17:18:22;;;;;;;90.75;42.42;;;;;;;;;;4895427;29;20016;-62
2022/01/10 17:20:48;;;;;;;94.47;43.65;;;;;;;;;;4895478;29;20119;-60
2022/01/10 17:23:15;;;;;;;85.55;40.35;;;;;;;;;;4895159;29;20103;-61
2022/01/10 17:25:41;;;;;;;89.57;41.90;;;;;;;;;;4894935;29;20605;-59
2022/01/10 17:28:07;;;;;;;90.80;42.38;;;;;;;;;;4908997;29;20487;-61
2022/01/10 17:30:34;;;;;;;90.55;43.17;;;;;;;;;;4916859;29;20062;-59
2022/01/10 17:33:00;;;;;;;77.32;39.92;;;;;;;;;;4920734;29;20024;-60
2022/01/10 17:35:26;;;;;;;73.68;35.00;;;;;;;;;;4921577;29;20040;-60
2022/01/10 17:37:52;;;;;;;73.80;36.75;;;;;;;;;;4917791;29;20516;-60
2022/01/10 17:40:18;;;;;;;76.00;36.50;;;;;;;;;;4922792;29;20036;-59
2022/01/10 17:42:46;;;;;;;75.28;36.30;;;;;;;;;;4919710;29;20060;-60
2022/01/10 17:45:15;;;;;;;85.20;40.47;;;;;;;;;;4918263;29;20026;-61
2022/01/10 17:47:41;;;;;;;74.22;36.13;;;;;;;;;;4928215;29;20092;-59
2022/01/10 17:50:11;;;;;;;74.88;35.63;;;;;;;;;;4895150;29;20017;-58
2022/01/10 17:52:42;;;;;;;75.43;36.30;;;;;;;;;;4908203;29;20024;-59
2022/01/10 17:55:10;;;;;;;82.70;38.40;;;;;;;;;;4920760;29;20118;-59
2022/01/10 17:57:37;;;;;;;69.50;32.35;;;;;;;;;;4922306;29;20428;-60
2022/01/10 18:00:04;;;;;;;70.57;35.17;;;;;;;;;;4916551;29;20040;-59
2022/01/10 18:02:31;;;;;;;62.60;28.65;;;;;;;;;;4920615;29;20028;-59
2022/01/10 18:04:58;;;;;;;71.05;35.10;;;;;;;;;;4913749;29;20050;-60
2022/01/10 18:07:24;;;;;;;79.93;37.92;;;;;;;;;;4921634;29;20483;-62
2022/01/10 18:09:50;;;;;;;76.82;34.22;;;;;;;;;;4920009;29;20055;-59
2022/01/10 18:12:16;;;;;;;80.93;37.47;;;;;;;;;;4924832;29;20032;-59
2022/01/10 18:14:45;;;;;;;74.38;35.03;;;;;;;;;;4922023;29;20040;-61
2022/01/10 18:17:11;;;;;;;73.70;35.53;;;;;;;;;;4921141;29;20029;-60
2022/01/10 18:19:38;;;;;;;78.40;36.03;;;;;;;;;;4923203;29;20027;-59
2022/01/10 18:22:04;;;;;;;76.72;36.60;;;;;;;;;;4916068;29;20468;-59
2022/01/10 18:24:30;;;;;;;72.72;34.30;;;;;;;;;;4919970;29;20044;-59
2022/01/10 18:26:56;;;;;;;78.22;37.45;;;;;;;;;;4915605;29;20058;-59
2022/01/10 18:29:27;;;;;;;77.88;37.38;;;;;;;;;;4922387;29;20043;-60
2022/01/10 18:31:53;;;;;;;78.82;37.03;;;;;;;;;;4916626;29;20722;-60
2022/01/10 18:34:19;;;;;;;76.13;37.50;;;;;;;;;;4918477;29;20032;-59
2022/01/10 18:36:45;;;;;;;79.78;38.28;;;;;;;;;;4914889;29;20498;-61
2022/01/10 18:39:12;;;;;;;75.93;36.45;;;;;;;;;;4925493;29;20028;-60
2022/01/10 18:41:39;;;;;;;74.28;37.22;;;;;;;;;;4922851;29;20039;-59
2022/01/10 18:44:05;;;;;;;85.03;39.05;;;;;;;;;;4918177;29;20125;-61
2022/01/10 18:46:31;;;;;;;79.72;38.03;;;;;;;;;;4919725;29;20104;-67
2022/01/10 18:48:58;;;;;;;82.47;39.33;;;;;;;;;;4927803;29;20613;-60
2022/01/10 18:51:24;;;;;;;72.35;36.28;;;;;;;;;;4933275;29;20420;-61
2022/01/10 18:53:51;;;;;;;65.15;31.88;;;;;;;;;;4935017;29;20041;-59
2022/01/10 18:56:17;;;;;;;75.63;35.55;;;;;;;;;;4909116;29;20028;-61
2022/01/10 18:58:43;;;;;;;71.10;35.53;;;;;;;;;;4932810;29;20127;-60
2022/01/10 19:01:09;;;;;;;86.53;40.03;;;;;;;;;;4903038;29;20028;-62
2022/01/10 19:03:35;;;;;;;84.85;40.13;;;;;;;;;;4935704;29;20032;-59
2022/01/10 19:06:03;;;;;;;81.97;39.03;;;;;;;;;;4932628;29;20024;-61
2022/01/10 19:08:29;;;;;;;81.82;39.00;;;;;;;;;;4933786;29;20070;-61
2022/01/10 19:10:56;;;;;;;85.65;40.03;;;;;;;;;;4929897;29;20031;-61
2022/01/10 19:13:23;;;;;;;82.88;39.53;;;;;;;;;;4915782;29;20468;-63
2022/01/10 19:15:50;;;;;;;86.63;41.13;;;;;;;;;;4914833;29;20059;-62
2022/01/10 19:18:16;;;;;;;89.68;41.67;;;;;;;;;;4915665;29;20099;-62
2022/01/10 19:20:45;;;;;;;91.93;43.25;;;;;;;;;;4923333;29;20043;-61
2022/01/10 19:23:11;;;;;;;87.53;41.38;;;;;;;;;;4923331;29;20032;-60
2022/01/10 19:25:37;;;;;;;93.38;42.47;;;;;;;;;;4921315;29;20032;-60
2022/01/10 19:28:06;;;;;;;81.47;40.65;;;;;;;;;;4915979;29;20229;-59
2022/01/10 19:30:32;;;;;;;78.35;38.38;;;;;;;;;;4916337;29;20524;-59
2022/01/10 19:32:58;;;;;;;75.30;36.97;;;;;;;;;;4916132;29;20040;-62
2022/01/10 19:35:25;;;;;;;82.30;39.63;;;;;;;;;;4915744;29;20047;-61
2022/01/10 19:37:51;;;;;;;85.20;40.88;;;;;;;;;;4915910;29;20021;-63
2022/01/10 19:40:17;;;;;;;74.90;37.85;;;;;;;;;;4916339;29;20028;-62
2022/01/10 19:42:44;;;;;;;83.30;40.90;;;;;;;;;;4915148;29;20024;-62
2022/01/10 19:45:10;;;;;;;86.50;41.58;;;;;;;;;;4915464;29;20032;-62
2022/01/10 19:47:36;;;;;;;94.22;44.35;;;;;;;;;;4915393;29;20028;-60
2022/01/10 19:50:04;;;;;;;102.13;45.88;;;;;;;;;;4915531;29;20115;-58
2022/01/10 19:52:31;;;;;;;93.95;45.03;;;;;;;;;;4915048;29;20036;-59
2022/01/10 19:54:57;;;;;;;78.10;36.65;;;;;;;;;;4915333;29;20044;-59
2022/01/10 19:57:25;;;;;;;68.85;32.17;;;;;;;;;;4915262;29;20035;-59
2022/01/10 19:59:52;;;;;;;74.07;33.25;;;;;;;;;;4915111;29;20397;-60
2022/01/10 20:02:19;;;;;;;76.07;36.45;;;;;;;;;;4915710;29;20047;-60
2022/01/10 20:04:45;;;;;;;85.70;40.97;;;;;;;;;;4929140;29;20027;-60
2022/01/10 20:07:11;;;;;;;84.60;40.08;;;;;;;;;;4934236;29;20076;-60
2022/01/10 20:09:38;;;;;;;75.18;36.97;;;;;;;;;;4934007;29;20135;-59
2022/01/10 20:12:04;;;;;;;70.30;35.80;;;;;;;;;;4934118;29;20046;-58
2022/01/10 20:14:30;;;;;;;90.60;41.95;;;;;;;;;;4927629;29;20058;-59
2022/01/10 20:16:56;;;;;;;75.05;31.48;;;;;;;;;;4914722;29;20046;-60
2022/01/10 20:19:22;;;;;;;82.88;39.90;;;;;;;;;;4899862;29;20032;-60
2022/01/10 20:21:48;;;;;;;78.43;38.00;;;;;;;;;;4923036;29;20859;-60
2022/01/10 20:24:15;;;;;;;79.85;37.60;;;;;;;;;;4923577;29;20084;-60
2022/01/10 20:26:42;;;;;;;85.30;40.47;;;;;;;;;;4917742;29;20040;-58
2022/01/10 20:29:08;;;;;;;76.90;35.05;;;;;;;;;;4927252;29;20079;-59
2022/01/10 20:31:35;;;;;;;71.95;35.45;;;;;;;;;;4920159;29;20071;-60
2022/01/10 20:34:07;;;;;;;75.80;37.42;;;;;;;;;;4914842;29;20120;-60
2022/01/10 20:36:55;;;;;;;81.00;37.55;;;;;;;;;;4915781;29;20405;-61
2022/01/10 20:39:45;;;;;;;74.15;35.70;;;;;;;;;;4922266;29;20115;-62
2022/01/10 20:42:11;;;;;;;69.55;30.42;;;;;;;;;;4924392;29;20032;-59
2022/01/10 20:44:39;;;;;;;78.05;38.20;;;;;;;;;;4924597;29;20092;-59
2022/01/10 20:47:05;;;;;;;85.85;40.22;;;;;;;;;;4922684;29;20458;-59
2022/01/10 20:49:31;;;;;;;89.00;42.42;;;;;;;;;;4924213;29;20160;-61
2022/01/10 20:51:57;;;;;;;92.65;42.60;;;;;;;;;;4916672;29;20036;-59
2022/01/10 20:54:23;;;;;;;97.22;46.00;;;;;;;;;;4908227;29;20074;-59
2022/01/10 20:56:50;;;;;;;86.93;41.35;;;;;;;;;;4897679;29;20500;-62
2022/01/10 20:59:16;;;;;;;68.93;33.97;;;;;;;;;;4896091;29;20028;-60
2022/01/10 21:01:42;;;;;;;86.22;40.15;;;;;;;;;;4895608;29;20036;-59
2022/01/10 21:04:08;;;;;;;87.13;44.22;;;;;;;;;;4896270;29;20033;-58
2022/01/10 21:06:35;;;;;;;99.07;44.92;;;;;;;;;;4898010;29;20123;-59
2022/01/10 21:09:04;;;;;;;107.32;48.92;;;;;;;;;;4921131;29;20051;-64
2022/01/10 21:11:31;;;;;;;90.25;43.53;;;;;;;;;;4927202;29;20035;-60
2022/01/10 21:13:57;;;;;;;86.55;41.60;;;;;;;;;;4921273;29;20112;-61
2022/01/10 21:16:24;;;;;;;92.90;45.42;;;;;;;;;;4920027;29;20036;-63
2022/01/10 21:18:51;;;;;;;87.28;43.58;;;;;;;;;;4914935;29;20029;-58
2022/01/10 21:21:17;;;;;;;88.68;42.40;;;;;;;;;;4915016;29;20048;-60
2022/01/10 21:23:44;;;;;;;89.03;43.45;;;;;;;;;;4915482;29;20036;-62